sensor_id;sensor_type;location;lat;lon;timestamp;pressure;altitude;pressure_sealevel;temperature
42119;BMP280;27783;42.782;23.274;2023-02-28T00:01:20;95980.81;;;5.65
42119;BMP280;27783;42.782;23.274;2023-02-28T00:03:46;96000.53;;;5.78
42119;BMP280;27783;42.782;23.274;2023-02-28T00:06:11;96009.06;;;5.75
42119;BMP280;27783;42.782;23.274;2023-02-28T00:08:38;95996.59;;;5.68
42119;BMP280;27783;42.782;23.274;2023-02-28T00:11:06;95993.69;;;5.73
42119;BMP280;27783;42.782;23.274;2023-02-28T00:13:35;95985.84;;;5.58
42119;BMP280;27783;42.782;23.274;2023-02-28T00:16:07;96000.28;;;5.52
42119;BMP280;27783;42.782;23.274;2023-02-28T00:18:34;96009.31;;;5.55
42119;BMP280;27783;42.782;23.274;2023-02-28T00:20:59;96014.78;;;5.50
42119;BMP280;27783;42.782;23.274;2023-02-28T00:23:25;96028.97;;;5.64
42119;BMP280;27783;42.782;23.274;2023-02-28T00:25:51;96025.84;;;5.59
42119;BMP280;27783;42.782;23.274;2023-02-28T00:28:17;96026.03;;;5.66
42119;BMP280;27783;42.782;23.274;2023-02-28T00:30:42;96029.22;;;5.59
42119;BMP280;27783;42.782;23.274;2023-02-28T00:33:08;96025.50;;;5.45
42119;BMP280;27783;42.782;23.274;2023-02-28T00:35:33;96027.28;;;5.56
42119;BMP280;27783;42.782;23.274;2023-02-28T00:37:59;96030.31;;;5.58
42119;BMP280;27783;42.782;23.274;2023-02-28T00:40:24;96036.22;;;5.55
42119;BMP280;27783;42.782;23.274;2023-02-28T00:42:49;96029.88;;;5.56
42119;BMP280;27783;42.782;23.274;2023-02-28T00:45:15;96030.72;;;5.60
42119;BMP280;27783;42.782;23.274;2023-02-28T00:47:40;96033.50;;;5.52
42119;BMP280;27783;42.782;23.274;2023-02-28T00:50:06;96032.75;;;5.51
42119;BMP280;27783;42.782;23.274;2023-02-28T00:52:31;96023.13;;;5.55
42119;BMP280;27783;42.782;23.274;2023-02-28T00:54:56;96015.63;;;5.54
42119;BMP280;27783;42.782;23.274;2023-02-28T00:57:22;96014.44;;;5.51
42119;BMP280;27783;42.782;23.274;2023-02-28T00:59:48;96012.75;;;5.44
42119;BMP280;27783;42.782;23.274;2023-02-28T01:02:13;96016.47;;;5.58
42119;BMP280;27783;42.782;23.274;2023-02-28T01:04:39;96012.75;;;5.44
42119;BMP280;27783;42.782;23.274;2023-02-28T01:07:04;96002.13;;;5.37
42119;BMP280;27783;42.782;23.274;2023-02-28T01:09:30;96000.69;;;5.24
42119;BMP280;27783;42.782;23.274;2023-02-28T01:11:55;95990.75;;;5.30
42119;BMP280;27783;42.782;23.274;2023-02-28T01:14:20;96000.00;;;5.27
42119;BMP280;27783;42.782;23.274;2023-02-28T01:16:46;95994.47;;;5.29
42119;BMP280;27783;42.782;23.274;2023-02-28T01:19:11;95985.59;;;5.18
42119;BMP280;27783;42.782;23.274;2023-02-28T01:21:37;95993.63;;;5.10
42119;BMP280;27783;42.782;23.274;2023-02-28T01:24:03;96008.44;;;5.06
42119;BMP280;27783;42.782;23.274;2023-02-28T01:26:29;96002.72;;;5.15
42119;BMP280;27783;42.782;23.274;2023-02-28T01:28:55;95999.09;;;5.20
42119;BMP280;27783;42.782;23.274;2023-02-28T01:31:21;96009.16;;;4.91
42119;BMP280;27783;42.782;23.274;2023-02-28T01:33:47;96016.81;;;4.84
42119;BMP280;27783;42.782;23.274;2023-02-28T01:36:20;96009.25;;;4.41
42119;BMP280;27783;42.782;23.274;2023-02-28T01:38:47;96020.91;;;4.44
42119;BMP280;27783;42.782;23.274;2023-02-28T01:41:39;96017.25;;;4.60
42119;BMP280;27783;42.782;23.274;2023-02-28T01:47:11;95999.38;;;4.35
42119;BMP280;27783;42.782;23.274;2023-02-28T01:49:37;96010.66;;;4.50
42119;BMP280;27783;42.782;23.274;2023-02-28T01:52:03;96012.22;;;4.40
42119;BMP280;27783;42.782;23.274;2023-02-28T01:54:31;96010.06;;;4.30
42119;BMP280;27783;42.782;23.274;2023-02-28T01:57:01;96008.13;;;4.15
42119;BMP280;27783;42.782;23.274;2023-02-28T01:59:38;96011.81;;;4.26
42119;BMP280;27783;42.782;23.274;2023-02-28T02:02:11;96008.13;;;4.15
42119;BMP280;27783;42.782;23.274;2023-02-28T02:05:42;96001.53;;;4.18
42119;BMP280;27783;42.782;23.274;2023-02-28T02:07:52;96008.25;;;4.19
42119;BMP280;27783;42.782;23.274;2023-02-28T02:10:21;96003.88;;;4.23
42119;BMP280;27783;42.782;23.274;2023-02-28T02:13:14;96008.69;;;4.21
42119;BMP280;27783;42.782;23.274;2023-02-28T02:18:47;96013.59;;;4.49
42119;BMP280;27783;42.782;23.274;2023-02-28T02:34:58;96014.25;;;4.73
42119;BMP280;27783;42.782;23.274;2023-02-28T02:40:19;96016.91;;;4.61
42119;BMP280;27783;42.782;23.274;2023-02-28T02:42:51;96021.34;;;4.72
42119;BMP280;27783;42.782;23.274;2023-02-28T02:45:28;96017.19;;;4.71
42119;BMP280;27783;42.782;23.274;2023-02-28T02:48:02;96020.81;;;4.67
42119;BMP280;27783;42.782;23.274;2023-02-28T02:50:37;96020.75;;;4.52
42119;BMP280;27783;42.782;23.274;2023-02-28T02:53:05;96023.03;;;4.53
42119;BMP280;27783;42.782;23.274;2023-02-28T02:55:34;96023.75;;;4.65
42119;BMP280;27783;42.782;23.274;2023-02-28T02:58:05;96028.88;;;4.62
42119;BMP280;27783;42.782;23.274;2023-02-28T03:00:37;96020.72;;;4.37
42119;BMP280;27783;42.782;23.274;2023-02-28T03:03:03;96011.41;;;4.24
42119;BMP280;27783;42.782;23.274;2023-02-28T03:05:35;96010.50;;;4.32
42119;BMP280;27783;42.782;23.274;2023-02-28T03:08:04;96023.06;;;4.42
42119;BMP280;27783;42.782;23.274;2023-02-28T03:10:38;96029.50;;;4.44
42119;BMP280;27783;42.782;23.274;2023-02-28T03:13:22;96035.06;;;4.31
42119;BMP280;27783;42.782;23.274;2023-02-28T03:21:43;96040.09;;;4.13
42119;BMP280;27783;42.782;23.274;2023-02-28T03:24:12;96047.16;;;4.24
42119;BMP280;27783;42.782;23.274;2023-02-28T03:26:42;96054.00;;;4.16
42119;BMP280;27783;42.782;23.274;2023-02-28T03:29:42;96056.81;;;4.23
42119;BMP280;27783;42.782;23.274;2023-02-28T03:32:24;96063.78;;;4.31
42119;BMP280;27783;42.782;23.274;2023-02-28T03:37:38;96070.75;;;4.27
42119;BMP280;27783;42.782;23.274;2023-02-28T03:40:11;96068.13;;;4.27
42119;BMP280;27783;42.782;23.274;2023-02-28T03:42:41;96071.78;;;4.38
42119;BMP280;27783;42.782;23.274;2023-02-28T03:45:15;96066.75;;;4.45
42119;BMP280;27783;42.782;23.274;2023-02-28T03:48:08;96074.91;;;4.55
42119;BMP280;27783;42.782;23.274;2023-02-28T03:50:38;96070.22;;;4.60
42119;BMP280;27783;42.782;23.274;2023-02-28T03:53:08;96062.97;;;4.54
42119;BMP280;27783;42.782;23.274;2023-02-28T03:55:40;96066.66;;;4.53
42119;BMP280;27783;42.782;23.274;2023-02-28T04:01:07;96077.28;;;4.60
42119;BMP280;27783;42.782;23.274;2023-02-28T04:03:36;96071.25;;;4.44
42119;BMP280;27783;42.782;23.274;2023-02-28T04:06:15;96075.75;;;4.59
42119;BMP280;27783;42.782;23.274;2023-02-28T04:09:03;96078.66;;;4.81
42119;BMP280;27783;42.782;23.274;2023-02-28T04:11:32;96081.09;;;4.62
42119;BMP280;27783;42.782;23.274;2023-02-28T04:14:05;96084.28;;;4.44
42119;BMP280;27783;42.782;23.274;2023-02-28T04:16:52;96078.72;;;4.57
42119;BMP280;27783;42.782;23.274;2023-02-28T04:19:22;96088.50;;;4.60
42119;BMP280;27783;42.782;23.274;2023-02-28T04:21:51;96093.72;;;4.60
42119;BMP280;27783;42.782;23.274;2023-02-28T04:24:27;96088.59;;;4.64
42119;BMP280;27783;42.782;23.274;2023-02-28T04:26:55;96092.94;;;4.60
42119;BMP280;27783;42.782;23.274;2023-02-28T04:29:27;96093.56;;;4.30
42119;BMP280;27783;42.782;23.274;2023-02-28T04:32:07;96083.53;;;4.32
42119;BMP280;27783;42.782;23.274;2023-02-28T04:34:35;96082.41;;;4.56
42119;BMP280;27783;42.782;23.274;2023-02-28T04:37:00;96093.72;;;4.48
42119;BMP280;27783;42.782;23.274;2023-02-28T04:39:28;96081.75;;;4.59
42119;BMP280;27783;42.782;23.274;2023-02-28T04:41:53;96087.28;;;4.69
42119;BMP280;27783;42.782;23.274;2023-02-28T04:44:20;96082.81;;;4.70
42119;BMP280;27783;42.782;23.274;2023-02-28T04:47:00;96087.16;;;4.66
42119;BMP280;27783;42.782;23.274;2023-02-28T04:49:27;96090.25;;;4.56
42119;BMP280;27783;42.782;23.274;2023-02-28T04:51:56;96084.81;;;4.49
42119;BMP280;27783;42.782;23.274;2023-02-28T04:54:21;96089.94;;;4.46
42119;BMP280;27783;42.782;23.274;2023-02-28T04:56:50;96088.53;;;4.75
42119;BMP280;27783;42.782;23.274;2023-02-28T04:59:17;96088.44;;;4.72
42119;BMP280;27783;42.782;23.274;2023-02-28T05:01:47;96105.84;;;4.68
42119;BMP280;27783;42.782;23.274;2023-02-28T05:04:13;96105.09;;;4.67
42119;BMP280;27783;42.782;23.274;2023-02-28T05:06:40;96100.63;;;4.80
42119;BMP280;27783;42.782;23.274;2023-02-28T05:09:05;96109.31;;;4.83
42119;BMP280;27783;42.782;23.274;2023-02-28T05:11:33;96105.59;;;4.84
42119;BMP280;27783;42.782;23.274;2023-02-28T05:14:13;96096.88;;;4.92
42119;BMP280;27783;42.782;23.274;2023-02-28T05:16:41;96100.94;;;4.78
42119;BMP280;27783;42.782;23.274;2023-02-28T05:19:07;96104.03;;;4.95
42119;BMP280;27783;42.782;23.274;2023-02-28T05:21:37;96111.19;;;4.98
42119;BMP280;27783;42.782;23.274;2023-02-28T05:24:06;96112.06;;;5.02
42119;BMP280;27783;42.782;23.274;2023-02-28T05:26:38;96117.38;;;5.05
42119;BMP280;27783;42.782;23.274;2023-02-28T05:29:08;96122.91;;;5.15
42119;BMP280;27783;42.782;23.274;2023-02-28T05:31:35;96122.13;;;5.15
42119;BMP280;27783;42.782;23.274;2023-02-28T05:34:01;96127.66;;;5.25
42119;BMP280;27783;42.782;23.274;2023-02-28T05:36:26;96121.94;;;5.08
42119;BMP280;27783;42.782;23.274;2023-02-28T05:38:52;96128.50;;;5.29
42119;BMP280;27783;42.782;23.274;2023-02-28T05:41:19;96135.94;;;5.42
42119;BMP280;27783;42.782;23.274;2023-02-28T05:43:45;96139.19;;;5.24
42119;BMP280;27783;42.782;23.274;2023-02-28T05:46:11;96137.19;;;5.33
42119;BMP280;27783;42.782;23.274;2023-02-28T05:48:38;96140.16;;;5.47
42119;BMP280;27783;42.782;23.274;2023-02-28T05:51:15;96136.22;;;5.52
42119;BMP280;27783;42.782;23.274;2023-02-28T05:53:40;96131.13;;;5.44
42119;BMP280;27783;42.782;23.274;2023-02-28T05:56:06;96138.06;;;5.52
42119;BMP280;27783;42.782;23.274;2023-02-28T05:58:31;96141.09;;;5.39
42119;BMP280;27783;42.782;23.274;2023-02-28T06:00:58;96151.28;;;5.44
42119;BMP280;27783;42.782;23.274;2023-02-28T06:03:23;96140.31;;;5.38
42119;BMP280;27783;42.782;23.274;2023-02-28T06:05:49;96144.97;;;5.18
42119;BMP280;27783;42.782;23.274;2023-02-28T06:08:15;96158.72;;;5.42
42119;BMP280;27783;42.782;23.274;2023-02-28T06:10:41;96155.28;;;4.99
42119;BMP280;27783;42.782;23.274;2023-02-28T06:13:06;96148.50;;;5.10
42119;BMP280;27783;42.782;23.274;2023-02-28T06:15:32;96148.81;;;5.09
42119;BMP280;27783;42.782;23.274;2023-02-28T06:17:57;96147.50;;;5.15
42119;BMP280;27783;42.782;23.274;2023-02-28T06:20:24;96156.25;;;5.07
42119;BMP280;27783;42.782;23.274;2023-02-28T06:22:50;96156.66;;;5.09
42119;BMP280;27783;42.782;23.274;2023-02-28T06:25:16;96164.22;;;5.25
42119;BMP280;27783;42.782;23.274;2023-02-28T06:27:42;96161.22;;;5.38
42119;BMP280;27783;42.782;23.274;2023-02-28T06:30:09;96166.13;;;5.40
42119;BMP280;27783;42.782;23.274;2023-02-28T06:32:35;96160.91;;;5.40
42119;BMP280;27783;42.782;23.274;2023-02-28T06:35:01;96153.84;;;5.55
42119;BMP280;27783;42.782;23.274;2023-02-28T06:37:26;96159.59;;;5.61
42119;BMP280;27783;42.782;23.274;2023-02-28T06:39:52;96158.19;;;5.63
42119;BMP280;27783;42.782;23.274;2023-02-28T06:42:17;96163.44;;;5.78
42119;BMP280;27783;42.782;23.274;2023-02-28T06:44:43;96169.53;;;5.82
42119;BMP280;27783;42.782;23.274;2023-02-28T06:47:09;96168.69;;;5.78
42119;BMP280;27783;42.782;23.274;2023-02-28T06:49:35;96165.31;;;5.78
42119;BMP280;27783;42.782;23.274;2023-02-28T06:52:02;96160.56;;;5.83
42119;BMP280;27783;42.782;23.274;2023-02-28T06:54:27;96165.16;;;5.86
42119;BMP280;27783;42.782;23.274;2023-02-28T06:56:53;96163.97;;;5.99
42119;BMP280;27783;42.782;23.274;2023-02-28T06:59:19;96162.72;;;6.08
42119;BMP280;27783;42.782;23.274;2023-02-28T07:01:45;96168.09;;;5.99
42119;BMP280;27783;42.782;23.274;2023-02-28T07:04:10;96172.81;;;6.39
42119;BMP280;27783;42.782;23.274;2023-02-28T07:06:36;96171.97;;;6.50
42119;BMP280;27783;42.782;23.274;2023-02-28T07:09:01;96183.84;;;6.63
42119;BMP280;27783;42.782;23.274;2023-02-28T07:11:27;96176.97;;;6.40
42119;BMP280;27783;42.782;23.274;2023-02-28T07:13:56;96176.84;;;6.67
42119;BMP280;27783;42.782;23.274;2023-02-28T07:16:23;96165.91;;;6.80
42119;BMP280;27783;42.782;23.274;2023-02-28T07:18:49;96174.09;;;6.79
42119;BMP280;27783;42.782;23.274;2023-02-28T07:21:15;96180.25;;;6.86
42119;BMP280;27783;42.782;23.274;2023-02-28T07:23:40;96180.47;;;6.96
42119;BMP280;27783;42.782;23.274;2023-02-28T07:26:11;96184.03;;;6.88
42119;BMP280;27783;42.782;23.274;2023-02-28T07:28:38;96174.00;;;6.90
42119;BMP280;27783;42.782;23.274;2023-02-28T07:31:04;96169.53;;;6.91
42119;BMP280;27783;42.782;23.274;2023-02-28T07:33:30;96162.91;;;6.97
42119;BMP280;27783;42.782;23.274;2023-02-28T07:36:03;96180.63;;;7.03
42119;BMP280;27783;42.782;23.274;2023-02-28T07:38:29;96168.63;;;7.02
42119;BMP280;27783;42.782;23.274;2023-02-28T07:40:54;96182.22;;;7.07
42119;BMP280;27783;42.782;23.274;2023-02-28T07:43:20;96175.53;;;7.10
42119;BMP280;27783;42.782;23.274;2023-02-28T07:45:45;96178.63;;;7.15
42119;BMP280;27783;42.782;23.274;2023-02-28T07:48:10;96170.16;;;7.40
42119;BMP280;27783;42.782;23.274;2023-02-28T07:50:36;96165.75;;;7.44
42119;BMP280;27783;42.782;23.274;2023-02-28T07:53:01;96182.28;;;7.48
42119;BMP280;27783;42.782;23.274;2023-02-28T07:55:27;96170.00;;;7.51
42119;BMP280;27783;42.782;23.274;2023-02-28T07:57:52;96167.59;;;7.62
42119;BMP280;27783;42.782;23.274;2023-02-28T08:00:18;96172.00;;;7.58
42119;BMP280;27783;42.782;23.274;2023-02-28T08:02:43;96172.44;;;7.60
42119;BMP280;27783;42.782;23.274;2023-02-28T08:05:09;96156.25;;;7.58
42119;BMP280;27783;42.782;23.274;2023-02-28T08:07:35;96167.78;;;7.72
42119;BMP280;27783;42.782;23.274;2023-02-28T08:10:00;96169.56;;;7.86
42119;BMP280;27783;42.782;23.274;2023-02-28T08:12:26;96171.47;;;7.89
42119;BMP280;27783;42.782;23.274;2023-02-28T08:14:51;96178.66;;;7.92
42119;BMP280;27783;42.782;23.274;2023-02-28T08:17:17;96179.03;;;7.72
42119;BMP280;27783;42.782;23.274;2023-02-28T08:19:45;96179.81;;;8.13
42119;BMP280;27783;42.782;23.274;2023-02-28T08:22:11;96181.75;;;8.16
42119;BMP280;27783;42.782;23.274;2023-02-28T08:24:36;96184.19;;;8.06
42119;BMP280;27783;42.782;23.274;2023-02-28T08:27:02;96188.59;;;8.02
42119;BMP280;27783;42.782;23.274;2023-02-28T08:29:27;96186.94;;;7.94
42119;BMP280;27783;42.782;23.274;2023-02-28T08:31:52;96182.13;;;8.18
42119;BMP280;27783;42.782;23.274;2023-02-28T08:34:18;96172.44;;;8.22
42119;BMP280;27783;42.782;23.274;2023-02-28T08:36:43;96171.63;;;8.18
42119;BMP280;27783;42.782;23.274;2023-02-28T08:39:11;96177.69;;;8.22
42119;BMP280;27783;42.782;23.274;2023-02-28T08:41:36;96172.03;;;8.42
42119;BMP280;27783;42.782;23.274;2023-02-28T08:44:02;96175.66;;;8.34
42119;BMP280;27783;42.782;23.274;2023-02-28T08:46:27;96170.28;;;8.27
42119;BMP280;27783;42.782;23.274;2023-02-28T08:48:54;96177.13;;;8.57
42119;BMP280;27783;42.782;23.274;2023-02-28T08:51:21;96173.28;;;8.76
42119;BMP280;27783;42.782;23.274;2023-02-28T08:53:52;96178.22;;;8.52
42119;BMP280;27783;42.782;23.274;2023-02-28T08:56:18;96172.59;;;8.79
42119;BMP280;27783;42.782;23.274;2023-02-28T08:58:46;96169.34;;;8.89
42119;BMP280;27783;42.782;23.274;2023-02-28T09:01:17;96172.88;;;8.99
42119;BMP280;27783;42.782;23.274;2023-02-28T09:03:43;96174.50;;;9.07
42119;BMP280;27783;42.782;23.274;2023-02-28T09:06:12;96177.84;;;9.04
42119;BMP280;27783;42.782;23.274;2023-02-28T09:08:37;96170.09;;;9.15
42119;BMP280;27783;42.782;23.274;2023-02-28T09:11:03;96177.75;;;9.26
42119;BMP280;27783;42.782;23.274;2023-02-28T09:13:30;96171.56;;;9.41
42119;BMP280;27783;42.782;23.274;2023-02-28T09:15:58;96169.94;;;9.33
42119;BMP280;27783;42.782;23.274;2023-02-28T09:18:24;96166.78;;;9.49
42119;BMP280;27783;42.782;23.274;2023-02-28T09:20:50;96163.91;;;9.61
42119;BMP280;27783;42.782;23.274;2023-02-28T09:23:16;96163.53;;;9.63
42119;BMP280;27783;42.782;23.274;2023-02-28T09:25:49;96156.47;;;9.70
42119;BMP280;27783;42.782;23.274;2023-02-28T09:28:15;96160.94;;;9.66
42119;BMP280;27783;42.782;23.274;2023-02-28T09:30:42;96161.53;;;9.85
42119;BMP280;27783;42.782;23.274;2023-02-28T09:33:08;96164.69;;;9.97
42119;BMP280;27783;42.782;23.274;2023-02-28T09:35:34;96166.84;;;10.27
42119;BMP280;27783;42.782;23.274;2023-02-28T09:37:59;96168.25;;;9.79
42119;BMP280;27783;42.782;23.274;2023-02-28T09:40:27;96152.63;;;10.35
42119;BMP280;27783;42.782;23.274;2023-02-28T09:42:55;96152.78;;;10.55
42119;BMP280;27783;42.782;23.274;2023-02-28T09:45:31;96152.78;;;10.55
42119;BMP280;27783;42.782;23.274;2023-02-28T09:48:03;96149.84;;;10.21
42119;BMP280;27783;42.782;23.274;2023-02-28T09:52:59;96143.91;;;10.83
42119;BMP280;27783;42.782;23.274;2023-02-28T09:55:37;96141.38;;;11.00
42119;BMP280;27783;42.782;23.274;2023-02-28T09:58:04;96135.88;;;11.22
42119;BMP280;27783;42.782;23.274;2023-02-28T10:00:37;96134.44;;;11.32
42119;BMP280;27783;42.782;23.274;2023-02-28T10:03:30;96132.28;;;11.67
42119;BMP280;27783;42.782;23.274;2023-02-28T10:08:50;96122.84;;;11.63
42119;BMP280;27783;42.782;23.274;2023-02-28T10:11:17;96117.19;;;11.61
42119;BMP280;27783;42.782;23.274;2023-02-28T10:16:24;96120.19;;;11.56
42119;BMP280;27783;42.782;23.274;2023-02-28T10:19:19;96115.69;;;11.70
42119;BMP280;27783;42.782;23.274;2023-02-28T10:22:11;96112.69;;;11.68
42119;BMP280;27783;42.782;23.274;2023-02-28T10:24:41;96113.06;;;11.74
42119;BMP280;27783;42.782;23.274;2023-02-28T10:27:24;96111.59;;;11.93
42119;BMP280;27783;42.782;23.274;2023-02-28T10:29:53;96100.66;;;11.98
42119;BMP280;27783;42.782;23.274;2023-02-28T10:32:22;96096.88;;;11.99
42119;BMP280;27783;42.782;23.274;2023-02-28T10:37:37;96091.97;;;12.28
42119;BMP280;27783;42.782;23.274;2023-02-28T10:40:05;96101.41;;;12.02
42119;BMP280;27783;42.782;23.274;2023-02-28T10:42:31;96089.72;;;11.99
42119;BMP280;27783;42.782;23.274;2023-02-28T10:45:16;96079.16;;;12.47
42119;BMP280;27783;42.782;23.274;2023-02-28T10:47:52;96081.75;;;12.81
42119;BMP280;27783;42.782;23.274;2023-02-28T10:52:55;96065.06;;;12.98
42119;BMP280;27783;42.782;23.274;2023-02-28T10:55:25;96064.41;;;13.57
42119;BMP280;27783;42.782;23.274;2023-02-28T10:57:51;96055.38;;;13.54
42119;BMP280;27783;42.782;23.274;2023-02-28T11:00:24;96061.72;;;13.67
42119;BMP280;27783;42.782;23.274;2023-02-28T11:02:50;96052.38;;;13.46
42119;BMP280;27783;42.782;23.274;2023-02-28T11:07:54;96048.22;;;14.08
42119;BMP280;27783;42.782;23.274;2023-02-28T11:10:25;96051.13;;;13.67
42119;BMP280;27783;42.782;23.274;2023-02-28T11:12:55;96043.81;;;13.91
42119;BMP280;27783;42.782;23.274;2023-02-28T11:15:22;96039.47;;;13.54
42119;BMP280;27783;42.782;23.274;2023-02-28T11:17:58;96032.97;;;13.66
42119;BMP280;27783;42.782;23.274;2023-02-28T11:20:26;96030.63;;;13.81
42119;BMP280;27783;42.782;23.274;2023-02-28T11:22:51;96037.56;;;13.55
42119;BMP280;27783;42.782;23.274;2023-02-28T11:25:29;96031.50;;;13.58
42119;BMP280;27783;42.782;23.274;2023-02-28T11:28:03;96033.16;;;13.35
42119;BMP280;27783;42.782;23.274;2023-02-28T11:30:37;96032.88;;;13.16
42119;BMP280;27783;42.782;23.274;2023-02-28T11:33:21;96032.88;;;13.16
42119;BMP280;27783;42.782;23.274;2023-02-28T11:35:48;96030.16;;;13.33
42119;BMP280;27783;42.782;23.274;2023-02-28T11:38:14;96031.25;;;13.39
42119;BMP280;27783;42.782;23.274;2023-02-28T11:51:05;96026.41;;;13.20
42119;BMP280;27783;42.782;23.274;2023-02-28T11:53:48;96028.78;;;12.98
42119;BMP280;27783;42.782;23.274;2023-02-28T11:56:38;96024.31;;;12.82
42119;BMP280;27783;42.782;23.274;2023-02-28T11:59:30;96018.91;;;13.12
42119;BMP280;27783;42.782;23.274;2023-02-28T12:10:26;96018.13;;;13.15
42119;BMP280;27783;42.782;23.274;2023-02-28T12:24:24;96014.75;;;13.08
42119;BMP280;27783;42.782;23.274;2023-02-28T12:26:53;96016.63;;;13.11
42119;BMP280;27783;42.782;23.274;2023-02-28T12:29:26;96021.28;;;12.80
42119;BMP280;27783;42.782;23.274;2023-02-28T12:34:57;96003.53;;;12.77
42119;BMP280;27783;42.782;23.274;2023-02-28T12:40:33;96009.97;;;12.79
42119;BMP280;27783;42.782;23.274;2023-02-28T12:43:07;96003.53;;;12.83
42119;BMP280;27783;42.782;23.274;2023-02-28T12:45:41;95993.22;;;13.02
42119;BMP280;27783;42.782;23.274;2023-02-28T12:48:13;96000.84;;;12.94
42119;BMP280;27783;42.782;23.274;2023-02-28T12:50:40;95995.03;;;13.19
42119;BMP280;27783;42.782;23.274;2023-02-28T12:53:12;95998.50;;;13.06
42119;BMP280;27783;42.782;23.274;2023-02-28T12:55:48;95996.03;;;13.42
42119;BMP280;27783;42.782;23.274;2023-02-28T12:58:22;95998.84;;;13.15
42119;BMP280;27783;42.782;23.274;2023-02-28T13:04:04;95986.50;;;12.78
42119;BMP280;27783;42.782;23.274;2023-02-28T13:09:15;95985.72;;;12.84
42119;BMP280;27783;42.782;23.274;2023-02-28T13:19:37;95983.59;;;12.32
42119;BMP280;27783;42.782;23.274;2023-02-28T13:22:04;95990.75;;;12.41
42119;BMP280;27783;42.782;23.274;2023-02-28T13:24:38;95980.56;;;12.40
42119;BMP280;27783;42.782;23.274;2023-02-28T13:29:30;95979.47;;;12.20
42119;BMP280;27783;42.782;23.274;2023-02-28T13:35:34;95979.09;;;12.25
42119;BMP280;27783;42.782;23.274;2023-02-28T13:39:58;95978.72;;;12.23
42119;BMP280;27783;42.782;23.274;2023-02-28T13:42:34;95983.59;;;12.35
42119;BMP280;27783;42.782;23.274;2023-02-28T13:58:15;95965.16;;;12.15
42119;BMP280;27783;42.782;23.274;2023-02-28T14:06:20;95964.81;;;11.72
42119;BMP280;27783;42.782;23.274;2023-02-28T14:08:52;95969.69;;;11.60
42119;BMP280;27783;42.782;23.274;2023-02-28T14:11:37;95972.31;;;11.46
42119;BMP280;27783;42.782;23.274;2023-02-28T14:14:07;95970.44;;;11.43
42119;BMP280;27783;42.782;23.274;2023-02-28T14:16:44;95972.31;;;11.43
42119;BMP280;27783;42.782;23.274;2023-02-28T14:21:36;95970.72;;;11.08
42119;BMP280;27783;42.782;23.274;2023-02-28T14:24:29;95973.75;;;11.16
42119;BMP280;27783;42.782;23.274;2023-02-28T14:37:44;95992.50;;;10.88
42119;BMP280;27783;42.782;23.274;2023-02-28T14:40:26;95990.59;;;10.82
42119;BMP280;27783;42.782;23.274;2023-02-28T14:43:04;95988.69;;;10.75
42119;BMP280;27783;42.782;23.274;2023-02-28T14:45:32;95985.22;;;10.54
42119;BMP280;27783;42.782;23.274;2023-02-28T14:47:58;95985.56;;;10.46
42119;BMP280;27783;42.782;23.274;2023-02-28T14:50:33;95988.91;;;10.40
42119;BMP280;27783;42.782;23.274;2023-02-28T14:52:59;95986.97;;;10.27
42119;BMP280;27783;42.782;23.274;2023-02-28T14:55:28;95985.47;;;10.29
42119;BMP280;27783;42.782;23.274;2023-02-28T14:57:59;95992.16;;;10.16
42119;BMP280;27783;42.782;23.274;2023-02-28T15:00:31;95989.03;;;10.01
42119;BMP280;27783;42.782;23.274;2023-02-28T15:02:58;95991.28;;;9.99
42119;BMP280;27783;42.782;23.274;2023-02-28T15:05:32;95995.84;;;10.05
42119;BMP280;27783;42.782;23.274;2023-02-28T15:08:13;95988.59;;;9.92
42119;BMP280;27783;42.782;23.274;2023-02-28T15:10:42;95984.78;;;9.83
42119;BMP280;27783;42.782;23.274;2023-02-28T15:13:12;95990.81;;;9.87
42119;BMP280;27783;42.782;23.274;2023-02-28T15:18:07;95995.78;;;9.53
42119;BMP280;27783;42.782;23.274;2023-02-28T15:20:38;96003.28;;;9.51
42119;BMP280;27783;42.782;23.274;2023-02-28T15:23:04;95996.94;;;9.59
42119;BMP280;27783;42.782;23.274;2023-02-28T15:25:29;95995.66;;;9.39
42119;BMP280;27783;42.782;23.274;2023-02-28T15:27:56;95996.41;;;9.40
42119;BMP280;27783;42.782;23.274;2023-02-28T15:30:27;96002.78;;;9.39
42119;BMP280;27783;42.782;23.274;2023-02-28T15:33:18;96007.13;;;9.21
42119;BMP280;27783;42.782;23.274;2023-02-28T15:35:44;96006.81;;;9.30
42119;BMP280;27783;42.782;23.274;2023-02-28T15:38:25;96016.06;;;9.14
42119;BMP280;27783;42.782;23.274;2023-02-28T15:40:52;96022.75;;;9.08
42119;BMP280;27783;42.782;23.274;2023-02-28T15:43:24;96018.94;;;9.02
42119;BMP280;27783;42.782;23.274;2023-02-28T15:46:03;96015.09;;;8.96
42119;BMP280;27783;42.782;23.274;2023-02-28T15:48:38;96019.63;;;8.99
42119;BMP280;27783;42.782;23.274;2023-02-28T15:51:33;96022.09;;;9.17
42119;BMP280;27783;42.782;23.274;2023-02-28T15:54:10;96023.59;;;9.15
42119;BMP280;27783;42.782;23.274;2023-02-28T15:56:45;96025.38;;;9.08
42119;BMP280;27783;42.782;23.274;2023-02-28T15:59:18;96027.81;;;8.91
42119;BMP280;27783;42.782;23.274;2023-02-28T16:01:44;96031.78;;;8.78
42119;BMP280;27783;42.782;23.274;2023-02-28T16:04:18;96025.38;;;8.76
42119;BMP280;27783;42.782;23.274;2023-02-28T16:06:45;96030.16;;;8.67
42119;BMP280;27783;42.782;23.274;2023-02-28T16:09:15;96034.22;;;8.61
42119;BMP280;27783;42.782;23.274;2023-02-28T16:11:44;96036.03;;;8.57
42119;BMP280;27783;42.782;23.274;2023-02-28T16:14:24;96046.47;;;8.54
42119;BMP280;27783;42.782;23.274;2023-02-28T16:16:54;96052.16;;;8.56
42119;BMP280;27783;42.782;23.274;2023-02-28T16:19:20;96056.50;;;8.45
42119;BMP280;27783;42.782;23.274;2023-02-28T16:21:46;96058.75;;;8.47
42119;BMP280;27783;42.782;23.274;2023-02-28T16:24:11;96067.34;;;8.44
42119;BMP280;27783;42.782;23.274;2023-02-28T16:26:39;96072.13;;;8.35
42119;BMP280;27783;42.782;23.274;2023-02-28T16:29:06;96073.28;;;8.37
42119;BMP280;27783;42.782;23.274;2023-02-28T16:31:37;96072.50;;;8.37
42119;BMP280;27783;42.782;23.274;2023-02-28T16:34:04;96075.84;;;8.34
42119;BMP280;27783;42.782;23.274;2023-02-28T16:36:30;96077.38;;;8.35
42119;BMP280;27783;42.782;23.274;2023-02-28T16:38:56;96080.38;;;8.37
42119;BMP280;27783;42.782;23.274;2023-02-28T16:41:27;96082.63;;;8.35
42119;BMP280;27783;42.782;23.274;2023-02-28T16:43:57;96084.03;;;8.29